Date,TemperatureHighF,TemperatureAvgF,TemperatureLowF,DewpointHighF,DewpointAvgF,DewpointLowF,HumidityHigh,HumidityAvg,HumidityLow,PressureMaxIn,PressureMinIn,WindSpeedMaxMPH,WindSpeedAvgMPH,GustSpeedMaxMPH,PrecipitationSumIn
2014-1-1,48.0,34.8,26.0,-99.9,-99.9,-99.9,0,0,100,0.00,40.00,0,-999,0,0.02
2014-1-2,51.0,39.7,31.0,-99.9,-99.9,-99.9,0,0,100,0.00,40.00,0,-999,0,0.26
2014-1-3,40.0,34.9,28.0,-99.9,-99.9,-99.9,0,0,100,0.00,40.00,0,-999,0,0.38
2014-1-4,41.0,28.1,20.0,-99.9,-99.9,-99.9,0,0,100,0.00,40.00,0,-999,0,0.01
2014-1-5,42.0,29.7,22.0,-99.9,-99.9,-99.9,0,0,100,0.00,40.00,0,-999,0,0.00
2014-1-6,33.0,28.6,21.0,-99.9,-99.9,-99.9,0,0,100,0.00,40.00,0,-999,0,0.00
2014-1-7,37.0,32.6,29.0,-99.9,-99.9,-99.9,0,0,100,0.00,40.00,0,-999,0,0.19
2014-1-8,40.0,36.0,33.0,-99.9,-99.9,-99.9,0,0,100,0.00,40.00,0,-999,0,0.72
2014-1-9,39.0,36.0,33.0,-99.9,-99.9,-99.9,0,0,100,0.00,40.00,0,-999,0,0.45
2014-1-10,45.0,40.5,38.0,-99.9,-99.9,-99.9,0,0,100,0.00,40.00,0,-999,0,0.08
2014-1-11,44.0,39.0,36.0,-99.9,-99.9,-99.9,0,0,100,0.00,40.00,0,-999,0,0.07
2014-1-12,42.0,34.4,30.0,-99.9,-99.9,-99.9,0,0,100,0.00,40.00,0,-999,0,0.08
2014-1-13,48.0,44.9,41.0,-99.9,-99.9,-99.9,0,0,100,0.00,40.00,0,-999,0,0.01
2014-1-14,50.0,41.4,30.0,-99.9,-99.9,-99.9,0,0,100,0.00,40.00,0,-999,0,0.01
2014-1-15,51.0,36.5,24.0,-99.9,-99.9,-99.9,0,0,100,0.00,40.00,0,-999,0,0.00
2014-1-16,55.0,38.5,22.0,-99.9,-99.9,-99.9,0,0,100,0.00,40.00,0,-999,0,0.00
2014-1-17,56.0,38.0,25.0,-99.9,-99.9,-99.9,0,0,100,0.00,40.00,0,-999,0,0.00
2014-1-18,55.0,31.4,22.0,-99.9,-99.9,-99.9,0,0,100,0.00,40.00,0,-999,0,0.00
2014-1-19,53.0,33.7,23.0,-99.9,-99.9,-99.9,0,0,100,0.00,40.00,0,-999,0,0.00
2014-1-20,60.0,34.8,22.0,-99.9,-99.9,-99.9,0,0,100,0.00,40.00,0,-999,0,0.00
2014-1-21,56.0,37.2,22.0,-99.9,-99.9,-99.9,0,0,100,0.00,40.00,0,-999,0,0.00
2014-1-22,55.0,36.2,30.0,-99.9,-99.9,-99.9,0,0,100,0.00,40.00,0,-999,0,0.00
2014-1-23,61.0,40.4,25.0,-99.9,-99.9,-99.9,0,0,100,0.00,40.00,0,-999,0,0.00
2014-1-24,64.0,35.7,22.0,-99.9,-99.9,-99.9,0,0,100,0.00,40.00,0,-999,0,0.00
2014-1-25,60.0,36.1,21.0,-99.9,-99.9,-99.9,0,0,100,0.00,40.00,0,-999,0,0.00
2014-1-26,60.0,32.1,20.0,-99.9,-99.9,-99.9,0,0,100,0.00,40.00,0,-999,0,0.00
2014-1-27,54.0,35.2,21.0,-99.9,-99.9,-99.9,0,0,100,0.00,40.00,0,-999,0,0.00
2014-1-28,56.0,43.0,36.0,-99.9,-99.9,-99.9,0,0,100,0.00,40.00,0,-999,0,0.01
2014-1-29,48.0,43.4,40.0,-99.9,-99.9,-99.9,0,0,100,0.00,40.00,0,-999,0,0.15
2014-1-30,43.0,37.4,33.0,-99.9,-99.9,-99.9,0,0,100,0.00,40.00,0,-999,0,0.07
2014-1-31,42.0,35.8,32.0,-99.9,-99.9,-99.9,0,0,100,0.00,40.00,0,-999,0,0.07
2014-2-1,42.0,34.4,28.0,-99.9,-99.9,-99.9,0,0,100,0.00,40.00,0,-999,0,0.01
2014-2-2,44.0,32.9,24.0,-99.9,-99.9,-99.9,0,0,100,0.00,40.00,0,-999,0,0.00
2014-2-3,36.0,30.3,25.0,-99.9,-99.9,-99.9,0,0,100,0.00,40.00,0,-999,0,0.00
2014-2-4,26.0,24.3,20.0,-99.9,-99.9,-99.9,0,0,100,0.00,40.00,0,-999,0,0.00
2014-2-5,16.0,15.0,14.0,-99.9,-99.9,-99.9,0,0,100,0.00,40.00,0,-999,0,0.00
2014-2-7,30.0,26.4,12.0,-99.9,-99.9,-99.9,0,0,100,0.00,40.00,0,-999,0,0.00
2014-2-8,29.0,23.5,20.0,-99.9,-99.9,-99.9,0,0,100,0.00,40.00,0,-999,0,0.00
2014-2-9,33.0,26.7,19.0,-99.9,-99.9,-99.9,0,0,100,0.00,40.00,0,-999,0,0.03
2014-2-10,38.0,31.2,26.0,-99.9,-99.9,-99.9,0,0,100,0.00,40.00,0,-999,0,0.07
2014-2-11,47.0,37.4,31.0,-99.9,-99.9,-99.9,0,0,100,0.00,40.00,0,-999,0,0.09
2014-2-12,55.0,42.2,33.0,-99.9,-99.9,-99.9,0,0,100,0.00,40.00,0,-999,0,0.06
2014-2-13,47.0,41.1,32.0,-99.9,-99.9,-99.9,0,0,100,0.00,40.00,0,-999,0,0.09
2014-2-14,47.0,38.3,32.0,-99.9,-99.9,-99.9,0,0,100,0.00,40.00,0,-999,0,0.08
2014-2-15,41.0,35.1,29.0,-99.9,-99.9,-99.9,0,0,100,0.00,40.00,0,-999,0,0.12
2014-2-16,43.0,34.8,31.0,-99.9,-99.9,-99.9,0,0,100,0.00,40.00,0,-999,0,0.17
2014-2-17,38.0,33.5,29.0,-99.9,-99.9,-99.9,0,0,100,0.00,40.00,0,-999,0,0.30
2014-2-18,39.0,32.7,30.0,-99.9,-99.9,-99.9,0,0,100,0.00,40.00,0,-999,0,0.29
2014-2-19,36.0,31.2,28.0,-99.9,-99.9,-99.9,0,0,100,0.00,40.00,0,-999,0,0.26
2014-2-20,37.0,33.0,28.0,-99.9,-99.9,-99.9,0,0,100,0.00,40.00,0,-999,0,0.36
2014-2-21,43.0,36.1,32.0,-99.9,-99.9,-99.9,0,0,100,0.00,40.00,0,-999,0,0.01
2014-2-22,35.0,31.4,25.0,-99.9,-99.9,-99.9,0,0,100,0.00,40.00,0,-999,0,0.01
2014-2-23,40.0,34.5,29.0,-99.9,-99.9,-99.9,0,0,100,0.00,40.00,0,-999,0,0.06
2014-2-24,42.0,38.0,35.0,-99.9,-99.9,-99.9,0,0,100,0.00,40.00,0,-999,0,0.11
2014-2-25,49.0,41.1,35.0,-99.9,-99.9,-99.9,0,0,100,0.00,40.00,0,-999,0,0.03
2014-2-26,56.0,44.8,35.0,-99.9,-99.9,-99.9,0,0,100,0.00,40.00,0,-999,0,0.00
2014-2-27,50.0,40.8,31.0,-99.9,-99.9,-99.9,0,0,100,0.00,40.00,0,-999,0,0.00
2014-2-28,61.0,47.2,28.0,-99.9,-99.9,-99.9,0,0,100,0.00,40.00,0,-999,0,0.00
2014-3-1,47.0,38.6,31.0,-99.9,-99.9,-99.9,0,0,100,0.00,40.00,0,-999,0,0.00
2014-3-2,37.0,33.2,30.0,-99.9,-99.9,-99.9,0,0,100,0.00,40.00,0,-999,0,0.26
2014-3-3,45.0,39.6,37.0,-99.9,-99.9,-99.9,0,0,100,0.00,40.00,0,-999,0,0.27
2014-3-4,45.0,41.9,40.0,-99.9,-99.9,-99.9,0,0,100,0.00,40.00,0,-999,0,0.23
2014-3-5,51.0,44.4,40.0,-99.9,-99.9,-99.9,0,0,100,0.00,40.00,0,-999,0,0.47
2014-3-6,47.0,44.4,43.0,-99.9,-99.9,-99.9,0,0,100,0.00,40.00,0,-999,0,0.35
2014-3-7,57.0,47.6,31.0,-99.9,-99.9,-99.9,0,0,100,0.00,40.00,0,-999,0,0.01
2014-3-8,46.0,38.7,26.0,-99.9,-99.9,-99.9,0,0,100,0.00,40.00,0,-999,0,0.57
2014-3-9,53.0,49.0,45.0,-99.9,-99.9,-99.9,0,0,100,0.00,40.00,0,-999,0,0.73
2014-3-10,47.0,42.9,40.0,-99.9,-99.9,-99.9,0,0,100,0.00,40.00,0,-999,0,0.18
2014-3-11,61.0,43.8,32.0,-99.9,-99.9,-99.9,0,0,100,0.00,40.00,0,-999,0,0.06
2014-3-12,72.0,43.4,24.0,-99.9,-99.9,-99.9,0,0,100,0.00,40.00,0,-999,0,0.00
2014-3-13,66.0,49.9,28.0,-99.9,-99.9,-99.9,0,0,100,0.00,40.00,0,-999,0,0.00
2014-3-14,49.0,43.3,37.0,-99.9,-99.9,-99.9,0,0,100,0.00,40.00,0,-999,0,0.26
2014-3-15,67.0,46.0,34.0,-99.9,-99.9,-99.9,0,0,100,0.00,40.00,0,-999,0,0.02
2014-3-16,52.0,45.9,33.0,-99.9,-99.9,-99.9,0,0,100,0.00,40.00,0,-999,0,0.45
2014-3-17,42.0,36.3,32.0,-99.9,-99.9,-99.9,0,0,100,0.00,40.00,0,-999,0,0.28
2014-3-18,55.0,39.0,28.0,-99.9,-99.9,-99.9,0,0,100,0.00,40.00,0,-999,0,0.01
2014-3-19,48.0,40.9,31.0,-99.9,-99.9,-99.9,0,0,100,0.00,40.00,0,-999,0,0.06
2014-3-20,43.0,35.8,32.0,-99.9,-99.9,-99.9,0,0,100,0.00,40.00,0,-999,0,0.07
2014-3-21,57.0,38.8,26.0,-99.9,-99.9,-99.9,0,0,100,0.00,40.00,0,-999,0,0.02
2014-3-22,63.0,49.8,28.0,-99.9,-99.9,-99.9,0,0,100,0.00,40.00,0,-999,0,0.00
2014-3-23,65.0,46.2,33.0,-99.9,-99.9,-99.9,0,0,100,0.00,40.00,0,-999,0,0.00
2014-3-24,79.0,48.8,24.0,-99.9,-99.9,-99.9,0,0,100,0.00,40.00,0,-999,0,0.00
2014-3-25,51.0,43.3,39.0,-99.9,-99.9,-99.9,0,0,100,0.00,40.00,0,-999,0,0.21
2014-3-26,48.0,41.9,36.0,-99.9,-99.9,-99.9,0,0,100,0.00,40.00,0,-999,0,0.16
2014-3-27,50.0,42.3,38.0,-99.9,-99.9,-99.9,0,0,100,0.00,40.00,0,-999,0,0.28
2014-3-28,45.0,41.2,38.0,-99.9,-99.9,-99.9,0,0,100,0.00,40.00,0,-999,0,0.74
2014-3-29,45.0,41.4,37.0,-99.9,-99.9,-99.9,0,0,100,0.00,40.00,0,-999,0,0.30
2014-3-30,51.0,41.8,33.0,-99.9,-99.9,-99.9,0,0,100,0.00,40.00,0,-999,0,0.19
2014-3-31,61.0,42.7,26.0,-99.9,-99.9,-99.9,0,0,100,0.00,40.00,0,-999,0,0.01
2014-4-1,55.0,47.7,39.0,-99.9,-99.9,-99.9,0,0,100,0.00,40.00,0,-999,0,0.01
2014-4-2,61.0,46.4,35.0,-99.9,-99.9,-99.9,0,0,100,0.00,40.00,0,-999,0,0.01
2014-4-3,59.0,42.5,29.0,-99.9,-99.9,-99.9,0,0,100,0.00,40.00,0,-999,0,0.07
2014-4-4,53.0,44.5,38.0,-99.9,-99.9,-99.9,0,0,100,0.00,40.00,0,-999,0,0.16
2014-4-5,51.0,45.1,40.0,-99.9,-99.9,-99.9,0,0,100,0.00,40.00,0,-999,0,0.56
2014-4-6,62.0,51.5,44.0,-99.9,-99.9,-99.9,0,0,100,0.00,40.00,0,-999,0,0.52
2014-4-7,83.0,54.0,37.0,-99.9,-99.9,-99.9,0,0,100,0.00,40.00,0,-999,0,0.01
2014-4-8,73.0,56.2,39.0,-99.9,-99.9,-99.9,0,0,100,0.00,40.00,0,-999,0,0.07
2014-4-9,63.0,49.1,36.0,-99.9,-99.9,-99.9,0,0,100,0.00,40.00,0,-999,0,0.12
2014-4-10,68.0,50.8,29.0,-99.9,-99.9,-99.9,0,0,100,0.00,40.00,0,-999,0,0.00
2014-4-11,73.0,51.7,29.0,-99.9,-99.9,-99.9,0,0,100,0.00,40.00,0,-999,0,0.00
2014-4-12,69.0,54.2,41.0,-99.9,-99.9,-99.9,0,0,100,0.00,40.00,0,-999,0,0.00
2014-4-13,79.0,51.6,27.0,-99.9,-99.9,-99.9,0,0,100,0.00,40.00,0,-999,0,0.00
2014-4-14,78.0,51.5,25.0,-99.9,-99.9,-99.9,0,0,100,0.00,40.00,0,-999,0,0.00
2014-4-15,61.0,50.7,44.0,-99.9,-99.9,-99.9,0,0,100,0.00,40.00,0,-999,0,0.00
2014-4-16,54.0,47.9,44.0,-99.9,-99.9,-99.9,0,0,100,0.00,40.00,0,-999,0,0.22
2014-4-17,53.0,47.8,43.0,-99.9,-99.9,-99.9,0,0,100,0.00,40.00,0,-999,0,0.53
2014-4-18,58.0,45.2,36.0,-99.9,-99.9,-99.9,0,0,100,0.00,40.00,0,-999,0,0.14
2014-4-19,52.0,40.3,27.0,-99.9,-99.9,-99.9,0,0,100,0.00,40.00,0,-999,0,0.22
2014-4-20,69.0,49.5,33.0,-99.9,-99.9,-99.9,0,0,100,0.00,40.00,0,-999,0,0.10
2014-4-21,74.0,49.6,38.0,-99.9,-99.9,-99.9,0,0,100,0.00,40.00,0,-999,0,0.06
2014-4-22,48.0,42.7,39.0,-99.9,-99.9,-99.9,0,0,100,0.00,40.00,0,-999,0,0.20
2014-4-23,43.0,39.0,36.0,-99.9,-99.9,-99.9,0,0,100,0.00,40.00,0,-999,0,0.33
2014-4-24,53.0,44.5,39.0,-99.9,-99.9,-99.9,0,0,100,0.00,40.00,0,-999,0,0.02
2014-4-25,55.0,44.1,37.0,-99.9,-99.9,-99.9,0,0,100,0.00,40.00,0,-999,0,0.01
2014-4-26,59.0,46.7,39.0,-99.9,-99.9,-99.9,0,0,100,0.00,40.00,0,-999,0,0.00
2014-4-27,47.0,39.6,37.0,-99.9,-99.9,-99.9,0,0,100,0.00,40.00,0,-999,0,0.00
2014-4-28,66.0,47.8,35.0,-99.9,-99.9,-99.9,0,0,100,0.00,40.00,0,-999,0,0.00
2014-4-29,72.0,47.9,38.0,-99.9,-99.9,-99.9,0,0,100,0.00,40.00,0,-999,0,0.00
2014-4-30,81.0,49.7,34.0,-99.9,-99.9,-99.9,0,0,100,0.00,40.00,0,-999,0,0.00
2014-5-1,83.0,56.4,39.0,-99.9,-99.9,-99.9,0,0,100,0.00,40.00,0,-999,0,0.00
2014-5-2,83.0,60.6,42.0,-99.9,-99.9,-99.9,0,0,100,0.00,40.00,0,-999,0,0.00
2014-5-3,59.0,54.0,50.0,-99.9,-99.9,-99.9,0,0,100,0.00,40.00,0,-999,0,0.00
2014-5-4,56.0,48.8,45.0,-99.9,-99.9,-99.9,0,0,100,0.00,40.00,0,-999,0,0.00
2014-5-5,58.0,49.5,44.0,-99.9,-99.9,-99.9,0,0,100,0.00,40.00,0,-999,0,0.22
2014-5-6,57.0,50.4,46.0,-99.9,-99.9,-99.9,0,0,100,0.00,40.00,0,-999,0,0.19
2014-5-13,81.0,69.2,60.0,-99.9,-99.9,-99.9,0,0,100,0.00,40.00,0,-999,0,0.00
2014-5-14,91.0,61.6,44.0,-99.9,-99.9,-99.9,0,0,100,0.00,40.00,0,-999,0,0.00
2014-5-15,86.0,63.0,49.0,-99.9,-99.9,-99.9,0,0,100,0.00,40.00,0,-999,0,0.00
2014-5-16,76.0,66.5,53.0,-99.9,-99.9,-99.9,0,0,100,0.00,40.00,0,-999,0,0.00
2014-5-17,73.0,62.5,54.0,-99.9,-99.9,-99.9,0,0,100,0.00,40.00,0,-999,0,0.00
2014-5-18,60.0,53.0,47.0,-99.9,-99.9,-99.9,0,0,100,0.00,40.00,0,-999,0,0.25
2014-5-19,75.0,57.1,49.0,-99.9,-99.9,-99.9,0,0,100,0.00,40.00,0,-999,0,0.06
2014-5-20,87.0,62.2,36.0,-99.9,-99.9,-99.9,0,0,100,0.00,40.00,0,-999,0,0.00
2014-5-21,80.0,66.0,53.0,-99.9,-99.9,-99.9,0,0,100,0.00,40.00,0,-999,0,0.00
2014-5-22,94.0,70.1,47.0,-99.9,-99.9,-99.9,0,0,100,0.00,40.00,0,-999,0,0.00
2014-5-23,71.0,64.3,55.0,-99.9,-99.9,-99.9,0,0,100,0.00,40.00,0,-999,0,0.04
2014-5-24,72.0,62.5,51.0,-99.9,-99.9,-99.9,0,0,100,0.00,40.00,0,-999,0,0.01
2014-5-25,72.0,58.7,48.0,-99.9,-99.9,-99.9,0,0,100,0.00,40.00,0,-999,0,0.15
2014-5-26,67.0,57.4,52.0,-99.9,-99.9,-99.9,0,0,100,0.00,40.00,0,-999,0,0.41
2014-5-27,73.0,58.6,46.0,-99.9,-99.9,-99.9,0,0,100,0.00,40.00,0,-999,0,0.02
2014-5-28,60.0,52.4,48.0,-99.9,-99.9,-99.9,0,0,100,0.00,40.00,0,-999,0,0.17
2014-5-29,72.0,55.7,46.0,-99.9,-99.9,-99.9,0,0,100,0.00,40.00,0,-999,0,0.02
2014-5-30,88.0,60.9,35.0,-99.9,-99.9,-99.9,0,0,100,0.00,40.00,0,-999,0,0.00
2014-5-31,89.0,68.0,45.0,-99.9,-99.9,-99.9,0,0,100,0.00,40.00,0,-999,0,0.00
2014-6-1,82.0,67.3,54.0,-99.9,-99.9,-99.9,0,0,100,0.00,40.00,0,-999,0,0.00
2014-6-2,88.0,68.5,45.0,-99.9,-99.9,-99.9,0,0,100,0.00,40.00,0,-999,0,0.00
2014-6-3,74.0,63.3,54.0,-99.9,-99.9,-99.9,0,0,100,0.00,40.00,0,-999,0,0.00
2014-6-4,82.0,65.6,50.0,-99.9,-99.9,-99.9,0,0,100,0.00,40.00,0,-999,0,0.00
2014-6-5,85.0,67.3,51.0,-99.9,-99.9,-99.9,0,0,100,0.00,40.00,0,-999,0,0.00
2014-6-6,90.0,66.8,42.0,-99.9,-99.9,-99.9,0,0,100,0.00,40.00,0,-999,0,0.00
2014-6-7,89.0,66.0,42.0,-99.9,-99.9,-99.9,0,0,100,0.00,40.00,0,-999,0,0.00
2014-6-8,89.0,69.4,48.0,-99.9,-99.9,-99.9,0,0,100,0.00,40.00,0,-999,0,0.00
2014-6-9,83.0,69.0,59.0,-99.9,-99.9,-99.9,0,0,100,0.00,40.00,0,-999,0,0.00
2014-6-10,75.0,63.0,54.0,-99.9,-99.9,-99.9,0,0,100,0.00,40.00,0,-999,0,0.00
2014-6-11,89.0,66.7,43.0,-99.9,-99.9,-99.9,0,0,100,0.00,40.00,0,-999,0,0.00
2014-6-12,74.0,61.9,53.0,-99.9,-99.9,-99.9,0,0,100,0.00,40.00,0,-999,0,0.02
2014-6-13,57.0,53.9,51.0,-99.9,-99.9,-99.9,0,0,100,0.00,40.00,0,-999,0,0.25
2014-6-14,59.0,54.2,50.0,-99.9,-99.9,-99.9,0,0,100,0.00,40.00,0,-999,0,0.01
2014-6-15,64.0,55.3,48.0,-99.9,-99.9,-99.9,0,0,100,0.00,40.00,0,-999,0,0.14
2014-6-16,58.0,51.1,46.0,-99.9,-99.9,-99.9,0,0,100,0.00,40.00,0,-999,0,0.23
2014-6-17,57.0,52.8,48.0,-99.9,-99.9,-99.9,0,0,100,0.00,40.00,0,-999,0,0.01
2014-6-18,78.0,61.1,52.0,-99.9,-99.9,-99.9,0,0,100,0.00,40.00,0,-999,0,0.01
2014-6-19,90.0,67.7,44.0,-99.9,-99.9,-99.9,0,0,100,0.00,40.00,0,-999,0,0.00
2014-6-20,76.0,63.7,53.0,-99.9,-99.9,-99.9,0,0,100,0.00,40.00,0,-999,0,0.00
2014-6-21,85.0,62.1,38.0,-99.9,-99.9,-99.9,0,0,100,0.00,40.00,0,-999,0,0.00
2014-6-22,92.0,69.2,44.0,-99.9,-99.9,-99.9,0,0,100,0.00,40.00,0,-999,0,0.00
2014-6-23,92.0,67.5,49.0,-99.9,-99.9,-99.9,0,0,100,0.00,40.00,0,-999,0,0.00
2014-6-24,83.0,67.8,57.0,-99.9,-99.9,-99.9,0,0,100,0.00,40.00,0,-999,0,0.02
2014-6-25,93.0,71.5,52.0,-99.9,-99.9,-99.9,0,0,100,0.00,40.00,0,-999,0,0.45
2014-6-26,72.0,64.2,60.0,-99.9,-99.9,-99.9,0,0,100,0.00,40.00,0,-999,0,0.58
2014-6-27,72.0,61.2,57.0,-99.9,-99.9,-99.9,0,0,100,0.00,40.00,0,-999,0,0.75
2014-6-28,69.0,61.6,56.0,-99.9,-99.9,-99.9,0,0,100,0.00,40.00,0,-999,0,0.30
2014-6-29,69.0,61.4,57.0,-99.9,-99.9,-99.9,0,0,100,0.00,40.00,0,-999,0,0.03
2014-6-30,101.0,75.2,50.0,-99.9,-99.9,-99.9,0,0,100,0.00,40.00,0,-999,0,0.00
2014-7-1,116.0,82.7,50.0,-99.9,-99.9,-99.9,0,0,100,0.00,40.00,0,-999,0,0.00
2014-7-2,94.0,75.4,60.0,-99.9,-99.9,-99.9,0,0,100,0.00,40.00,0,-999,0,0.00
2014-7-3,80.0,69.9,61.0,-99.9,-99.9,-99.9,0,0,100,0.00,40.00,0,-999,0,0.00
2014-7-4,89.0,72.0,56.0,-99.9,-99.9,-99.9,0,0,100,0.00,40.00,0,-999,0,0.00
2014-7-5,94.0,74.3,56.0,-99.9,-99.9,-99.9,0,0,100,0.00,40.00,0,-999,0,0.00
2014-7-6,101.0,80.5,55.0,-99.9,-99.9,-99.9,0,0,100,0.00,40.00,0,-999,0,0.00
2014-7-7,103.0,82.2,59.0,-99.9,-99.9,-99.9,0,0,100,0.00,40.00,0,-999,0,0.00
2014-7-8,104.0,84.2,65.0,-99.9,-99.9,-99.9,0,0,100,0.00,40.00,0,-999,0,0.00
2014-7-9,96.0,79.7,64.0,-99.9,-99.9,-99.9,0,0,100,0.00,40.00,0,-999,0,0.00
2014-7-10,99.0,77.4,61.0,-99.9,0.0,200.0,0,0,100,0.00,40.00,0,0,0,0.00
2014-7-11,105.0,81.6,54.0,-99.9,0.0,200.0,0,0,100,0.00,40.00,0,0,0,0.00
2014-7-12,111.0,86.2,61.0,-99.9,0.0,200.0,0,0,100,0.00,40.00,0,0,0,0.00
2014-7-13,100.0,82.0,64.0,-99.9,0.0,200.0,0,0,100,0.00,40.00,0,0,0,0.00
2014-7-14,102.0,82.0,68.0,-99.9,0.0,200.0,0,0,100,0.00,40.00,0,0,0,0.00
2014-7-15,109.0,83.2,62.0,-99.9,0.0,200.0,0,0,100,0.00,40.00,0,0,0,0.00
2014-7-16,106.0,83.0,63.0,-99.9,0.0,200.0,0,0,100,0.00,40.00,0,0,0,0.00
2014-7-17,90.0,75.9,61.0,-99.9,0.0,200.0,0,0,100,0.00,40.00,0,0,0,0.00
2014-7-18,89.0,71.5,52.0,-99.9,0.0,200.0,0,0,100,0.00,40.00,0,0,0,0.00
2014-7-19,91.0,76.9,61.0,-99.9,0.0,200.0,0,0,100,0.00,40.00,0,0,0,0.00
2014-7-20,76.0,69.7,64.0,-99.9,0.0,200.0,0,0,100,0.00,40.00,0,0,0,0.00
2014-7-21,91.0,76.2,57.0,-99.9,0.0,200.0,0,0,100,0.00,40.00,0,0,0,0.00
2014-7-22,78.0,68.7,63.0,-99.9,0.0,200.0,0,0,100,0.00,40.00,0,0,0,0.24
2014-7-23,68.0,62.7,56.0,-99.9,0.0,200.0,0,0,100,0.00,40.00,0,0,0,1.32
2014-7-24,72.0,60.5,55.0,-99.9,0.0,200.0,0,0,100,0.00,40.00,0,0,0,0.18
2014-7-25,89.0,69.5,52.0,-99.9,0.0,200.0,0,0,100,0.00,40.00,0,0,0,0.01
2014-7-26,97.0,77.3,59.0,-99.9,0.0,200.0,0,0,100,0.00,40.00,0,0,0,0.00
2014-7-27,101.0,77.3,54.0,-99.9,0.0,200.0,0,0,100,0.00,40.00,0,0,0,0.00
2014-7-28,107.0,83.9,61.0,-99.9,0.0,200.0,0,0,100,0.00,40.00,0,0,0,0.00
2014-7-29,106.0,82.8,59.0,-99.9,0.0,200.0,0,0,100,0.00,40.00,0,0,0,0.00
2014-7-30,104.0,81.0,60.0,-99.9,0.0,200.0,0,0,100,0.00,40.00,0,0,0,0.00
2014-7-31,108.0,82.6,59.0,-99.9,0.0,200.0,0,0,100,0.00,40.00,0,0,0,0.00
2014-8-1,109.0,83.1,66.0,-99.9,0.0,200.0,0,0,100,0.00,40.00,0,0,0,0.00
2014-8-2,99.0,82.0,63.0,-99.9,0.0,200.0,0,0,100,0.00,40.00,0,0,0,0.00
2014-8-3,108.0,86.8,63.0,-99.9,0.0,200.0,0,0,100,0.00,40.00,0,0,0,0.00
2014-8-4,109.0,83.9,63.0,-99.9,0.0,200.0,0,0,100,0.00,40.00,0,0,0,0.00
2014-8-5,93.0,76.5,56.0,-99.9,0.0,200.0,0,0,100,0.00,40.00,0,0,0,0.00
2014-8-6,90.0,77.2,67.0,-99.9,0.0,200.0,0,0,100,0.00,40.00,0,0,0,0.00
2014-8-7,93.0,80.4,63.0,-99.9,0.0,200.0,0,0,100,0.00,40.00,0,0,0,0.00
2014-8-8,89.0,69.8,52.0,-99.9,0.0,200.0,0,0,100,0.00,40.00,0,0,0,0.00
2014-8-9,97.0,73.0,52.0,-99.9,0.0,200.0,0,0,100,0.00,40.00,0,0,0,0.00
2014-8-10,108.0,77.8,53.0,-99.9,0.0,200.0,0,0,100,0.00,40.00,0,0,0,0.00
2014-8-11,121.0,89.2,59.0,-99.9,0.0,200.0,0,0,100,0.00,40.00,0,0,0,0.00
2014-8-12,96.0,76.7,70.0,-99.9,0.0,200.0,0,0,100,0.00,40.00,0,0,0,1.56
2014-8-13,82.0,72.0,68.0,-99.9,0.0,200.0,0,0,100,0.00,40.00,0,0,0,1.98
2014-8-14,76.0,70.5,67.0,-99.9,0.0,200.0,0,0,100,0.00,40.00,0,0,0,0.02
2014-8-15,80.0,71.1,67.0,-99.9,0.0,200.0,0,0,100,0.00,40.00,0,0,0,0.02
2014-8-16,76.0,68.8,66.0,-99.9,0.0,200.0,0,0,100,0.00,40.00,0,0,0,0.00
2014-8-17,77.0,71.1,68.0,-99.9,0.0,200.0,0,0,100,0.00,40.00,0,0,0,0.00
2014-8-18,105.0,75.1,60.0,-99.9,0.0,200.0,0,0,100,0.00,40.00,0,0,0,0.00
2014-8-19,94.0,78.8,68.0,-99.9,0.0,200.0,0,0,100,0.00,40.00,0,0,0,0.00
2014-8-20,83.0,71.1,59.0,-99.9,0.0,200.0,0,0,100,0.00,40.00,0,0,0,0.00
2014-8-21,85.0,69.4,58.0,-99.9,0.0,200.0,0,0,100,0.00,40.00,0,0,0,0.00
2014-8-22,86.0,57.5,44.0,-99.9,0.0,200.0,0,0,100,0.00,40.00,0,0,0,0.00
2014-8-23,79.0,59.2,49.0,-99.9,0.0,200.0,0,0,100,0.00,40.00,0,0,0,0.00
2014-8-24,85.0,58.1,50.0,-99.9,0.0,200.0,0,0,100,0.00,40.00,0,0,0,0.13
2014-8-25,80.0,57.4,47.0,-99.9,0.0,200.0,0,0,100,0.00,40.00,0,0,0,0.13
2014-8-26,85.0,63.8,53.0,-99.9,0.0,200.0,0,0,100,0.00,40.00,0,0,0,0.00
2014-8-27,90.0,68.4,57.0,-99.9,0.0,200.0,0,0,100,0.00,40.00,0,0,0,0.00
2014-8-28,87.0,66.6,55.0,-99.9,0.0,200.0,0,0,100,0.00,40.00,0,0,0,0.00
2014-8-29,80.0,65.5,55.0,-99.9,0.0,200.0,0,0,100,0.00,40.00,0,0,0,0.00
2014-8-30,77.0,66.0,61.0,-99.9,0.0,200.0,0,0,100,0.00,40.00,0,0,0,0.01
2014-8-31,76.0,62.0,50.0,-99.9,0.0,200.0,0,0,100,0.00,40.00,0,0,0,0.01
2014-9-1,84.0,58.1,46.0,-99.9,0.0,200.0,0,0,100,0.00,40.00,0,0,0,0.00
2014-9-2,78.0,62.2,53.0,-99.9,0.0,200.0,0,0,100,0.00,40.00,0,0,0,0.11
2014-9-3,70.0,60.3,54.0,-99.9,0.0,200.0,0,0,100,0.00,40.00,0,0,0,0.12
2014-9-4,87.0,56.1,39.0,-99.9,0.0,200.0,0,0,100,0.00,40.00,0,0,0,0.00
2014-9-5,79.0,53.6,42.0,-99.9,0.0,200.0,0,0,100,0.00,40.00,0,0,0,0.00
2014-9-6,94.0,60.0,44.0,-99.9,0.0,200.0,0,0,100,0.00,40.00,0,0,0,0.00
2014-9-7,93.0,58.4,44.0,-99.9,0.0,200.0,0,0,100,0.00,40.00,0,0,0,0.00
2014-9-8,83.0,63.9,44.0,-99.9,0.0,200.0,0,0,100,0.00,40.00,0,0,0,0.00
2014-9-9,79.0,66.9,58.0,-99.9,0.0,200.0,0,0,100,0.00,40.00,0,0,0,0.00
2014-9-10,85.0,63.0,53.0,-99.9,0.0,200.0,0,0,100,0.00,40.00,0,0,0,0.00
2014-9-11,80.0,68.9,58.0,-99.9,0.0,200.0,0,0,100,0.00,40.00,0,0,0,0.00
2014-9-12,87.0,58.3,43.0,-99.9,0.0,200.0,0,0,100,0.00,40.00,0,0,0,0.00
2014-9-13,88.0,56.0,40.0,-99.9,0.0,200.0,0,0,100,0.00,40.00,0,0,0,0.00
2014-9-14,89.0,54.3,37.0,-99.9,0.0,200.0,0,0,100,0.00,40.00,0,0,0,0.00
2014-9-15,91.0,56.5,40.0,-99.9,0.0,200.0,0,0,100,0.00,40.00,0,0,0,0.00
2014-9-16,85.0,66.4,55.0,-99.9,0.0,200.0,0,0,100,0.00,40.00,0,0,0,0.00
2014-9-17,87.0,69.7,57.0,-99.9,0.0,200.0,0,0,100,0.00,40.00,0,0,0,0.00
2014-9-18,71.0,66.9,64.0,-99.9,0.0,200.0,0,0,100,0.00,40.00,0,0,0,0.03
2014-9-19,87.0,67.7,60.0,-99.9,0.0,200.0,0,0,100,0.00,40.00,0,0,0,0.02
2014-9-20,72.0,54.2,47.0,-99.9,0.0,200.0,0,0,100,0.00,40.00,0,0,0,0.00
2014-9-21,94.0,65.9,52.0,-99.9,0.0,200.0,0,0,100,0.00,40.00,0,0,0,0.00
2014-9-22,82.0,69.1,63.0,-99.9,0.0,200.0,0,0,100,0.00,40.00,0,0,0,0.00
2014-9-23,69.0,62.3,55.0,-99.9,0.0,200.0,0,0,100,0.00,40.00,0,0,0,0.18
2014-9-24,66.0,63.3,60.0,-99.9,0.0,200.0,0,0,100,0.00,40.00,0,0,0,0.67
2014-9-25,76.0,63.4,58.0,-99.9,0.0,200.0,0,0,100,0.00,40.00,0,0,0,0.33
2014-9-26,66.0,60.0,56.0,-99.9,0.0,200.0,0,0,100,0.00,40.00,0,0,0,0.23
2014-9-27,78.0,63.6,52.0,-99.9,0.0,200.0,0,0,100,0.00,40.00,0,0,0,0.02
2014-9-28,82.0,59.9,46.0,-99.9,0.0,200.0,0,0,100,0.00,40.00,0,0,0,0.00
2014-9-29,73.0,62.2,56.0,-99.9,0.0,200.0,0,0,100,0.00,40.00,0,0,0,0.07
2014-9-30,63.0,57.3,54.0,-99.9,0.0,200.0,0,0,100,0.00,40.00,0,0,0,0.24
2014-10-1,67.0,55.4,46.0,-99.9,0.0,200.0,0,0,100,0.00,40.00,0,0,0,0.14
2014-10-2,75.0,54.9,42.0,-99.9,0.0,200.0,0,0,100,0.00,40.00,0,0,0,0.00
2014-10-3,82.0,50.8,36.0,-99.9,0.0,200.0,0,0,100,0.00,40.00,0,0,0,0.00
2014-10-4,82.0,58.7,44.0,-99.9,0.0,200.0,0,0,100,0.00,40.00,0,0,0,0.00
2014-10-5,82.0,57.2,45.0,-99.9,0.0,200.0,0,0,100,0.00,40.00,0,0,0,0.00
2014-10-6,91.0,60.6,48.0,-99.9,0.0,200.0,0,0,100,0.00,40.00,0,0,0,0.00
2014-10-7,88.0,61.2,48.0,-99.9,0.0,200.0,0,0,100,0.00,40.00,0,0,0,0.00
2014-10-8,80.0,63.7,53.0,-99.9,0.0,200.0,0,0,100,0.00,40.00,0,0,0,0.00
2014-10-9,83.0,54.2,39.0,-99.9,0.0,200.0,0,0,100,0.00,40.00,0,0,0,0.00
2014-10-10,80.0,58.2,38.0,-99.9,0.0,200.0,0,0,100,0.00,40.00,0,0,0,0.00
2014-10-11,68.0,59.4,52.0,-99.9,0.0,200.0,0,0,100,0.00,40.00,0,0,0,0.32
2014-10-12,69.0,58.0,51.0,-99.9,0.0,200.0,0,0,100,0.00,40.00,0,0,0,0.04
2014-10-13,80.0,58.0,43.0,-99.9,0.0,200.0,0,0,100,0.00,40.00,0,0,0,0.00
2014-10-14,63.0,56.7,53.0,-99.9,0.0,200.0,0,0,100,0.00,40.00,0,0,0,0.41
2014-10-15,57.0,53.6,51.0,-99.9,0.0,200.0,0,0,100,0.00,40.00,0,0,0,0.63
2014-10-16,69.0,53.8,45.0,-99.9,0.0,200.0,0,0,100,0.00,40.00,0,0,0,0.04
2014-10-17,57.0,52.6,46.0,-99.9,0.0,200.0,0,0,100,0.00,40.00,0,0,0,0.98
2014-10-18,72.0,59.4,53.0,-99.9,0.0,200.0,0,0,100,0.00,40.00,0,0,0,0.66
2014-10-19,74.0,57.7,47.0,-99.9,0.0,200.0,0,0,100,0.00,40.00,0,0,0,0.00
2014-10-20,61.0,56.4,52.0,-99.9,0.0,200.0,0,0,100,0.00,40.00,0,0,0,0.44
2014-10-21,58.0,53.7,51.0,-99.9,0.0,200.0,0,0,100,0.00,40.00,0,0,0,0.14
2014-10-22,55.0,52.5,51.0,-99.9,0.0,200.0,0,0,100,0.00,40.00,0,0,0,2.12
2014-10-23,58.0,50.8,47.0,-99.9,0.0,200.0,0,0,100,0.00,40.00,0,0,0,1.03
2014-10-24,53.0,48.5,44.0,-99.9,0.0,200.0,0,0,100,0.00,40.00,0,0,0,0.30
2014-10-25,60.0,51.0,44.0,-99.9,0.0,200.0,0,0,100,0.00,40.00,0,0,0,0.59
2014-10-26,50.0,45.4,40.0,-99.9,0.0,200.0,0,0,100,0.00,40.00,0,0,0,0.79
2014-10-27,59.0,44.9,36.0,-99.9,0.0,200.0,0,0,100,0.00,40.00,0,0,0,0.01
2014-10-28,52.0,48.7,46.0,-99.9,0.0,200.0,0,0,100,0.00,40.00,0,0,0,0.86
2014-10-29,62.0,53.8,49.0,-99.9,0.0,200.0,0,0,100,0.00,40.00,0,0,0,0.46
2014-10-30,58.0,53.8,50.0,-99.9,0.0,200.0,0,0,100,0.00,40.00,0,0,0,1.00
2014-10-31,55.0,50.9,46.0,-99.9,0.0,200.0,0,0,100,0.00,40.00,0,0,0,0.62
2014-11-1,51.0,45.8,42.0,-99.9,0.0,200.0,0,0,100,0.00,40.00,0,0,0,0.01
2014-11-2,53.0,46.4,40.0,-99.9,0.0,200.0,0,0,100,0.00,40.00,0,0,0,0.30
2014-11-3,54.0,50.2,47.0,-99.9,0.0,200.0,0,0,100,0.00,40.00,0,0,0,0.39
2014-11-4,57.0,51.6,45.0,-99.9,0.0,200.0,0,0,100,0.00,40.00,0,0,0,0.67
2014-11-5,56.0,50.8,44.0,-99.9,0.0,200.0,0,0,100,0.00,40.00,0,0,0,0.14
2014-11-6,60.0,53.5,48.0,-99.9,0.0,200.0,0,0,100,0.00,40.00,0,0,0,0.39
2014-11-7,57.0,45.0,34.0,-99.9,0.0,200.0,0,0,100,0.00,40.00,0,0,0,0.01
2014-11-8,61.0,43.7,28.0,-99.9,0.0,200.0,0,0,100,0.00,40.00,0,0,0,0.00
2014-11-9,51.0,43.0,35.0,-99.9,0.0,200.0,0,0,100,0.00,40.00,0,0,0,0.81
2014-11-10,58.0,42.8,32.0,-99.9,0.0,200.0,0,0,100,0.00,40.00,0,0,0,0.18
2014-11-11,39.0,32.5,25.0,-99.9,0.0,200.0,0,0,100,0.00,40.00,0,0,0,0.00
2014-11-12,34.0,26.1,21.0,-99.9,0.0,200.0,0,0,100,0.00,40.00,0,0,0,0.00
2014-11-13,33.0,30.1,26.0,-99.9,0.0,200.0,0,0,100,0.00,40.00,0,0,0,0.00
2014-11-14,45.0,32.0,16.0,-99.9,0.0,200.0,0,0,100,0.00,40.00,0,0,0,0.00
2014-11-15,44.0,28.6,16.0,-99.9,0.0,200.0,0,0,100,0.00,40.00,0,0,0,0.00
2014-11-16,57.0,26.1,9.0,-99.9,0.0,200.0,0,0,100,0.00,40.00,0,0,0,0.00
2014-11-17,56.0,26.5,12.0,-99.9,0.0,200.0,0,0,100,0.00,40.00,0,0,0,0.00
2014-11-18,48.0,26.0,12.0,-99.9,0.0,200.0,0,0,100,0.00,40.00,0,0,0,0.00
2014-11-19,52.0,35.2,26.0,-99.9,0.0,200.0,0,0,100,0.00,40.00,0,0,0,0.00
2014-11-20,46.0,39.5,34.0,-99.9,0.0,200.0,0,0,100,0.00,40.00,0,0,0,0.14
2014-11-21,47.0,41.7,39.0,-99.9,0.0,200.0,0,0,100,0.00,40.00,0,0,0,1.36
2014-11-22,45.0,38.1,35.0,-99.9,0.0,200.0,0,0,100,0.00,40.00,0,0,0,0.97
2014-11-23,40.0,37.2,32.0,-99.9,0.0,200.0,0,0,100,0.00,40.00,0,0,0,1.30
2014-11-24,41.0,35.3,28.0,-99.9,0.0,200.0,0,0,100,0.00,40.00,0,0,0,0.58
2014-11-25,55.0,41.3,39.0,-99.9,0.0,200.0,0,0,100,0.00,40.00,0,0,0,2.70
2014-11-26,57.0,50.9,50.0,-99.9,0.0,200.0,0,0,100,0.00,40.00,0,0,0,0.01
2014-11-27,52.0,49.8,48.0,-99.9,0.0,200.0,0,0,100,0.00,40.00,0,0,0,0.64
2014-11-28,50.0,48.0,47.0,-99.9,0.0,200.0,0,0,100,0.00,40.00,0,0,0,0.49
2014-11-29,32.0,26.7,20.0,-99.9,0.0,200.0,0,0,100,0.00,40.00,0,0,0,0.16
2014-11-30,36.0,25.8,16.0,-99.9,0.0,200.0,0,0,100,0.00,40.00,0,0,0,0.01
2014-12-1,37.0,26.2,14.0,-99.9,0.0,200.0,0,0,100,0.00,40.00,0,0,0,0.00
2014-12-2,42.0,38.0,22.0,-99.9,0.0,200.0,0,0,100,0.00,40.00,0,0,0,0.00
2014-12-3,47.0,40.9,33.0,-99.9,0.0,200.0,0,0,100,0.00,40.00,0,0,0,0.00
2014-12-4,40.0,36.2,32.0,-99.9,0.0,200.0,0,0,100,0.00,40.00,0,0,0,0.07
2014-12-5,46.0,40.5,36.0,-99.9,0.0,200.0,0,0,100,0.00,40.00,0,0,0,0.13
2014-12-6,43.0,41.7,36.0,-99.9,0.0,200.0,0,0,100,0.00,40.00,0,0,0,0.89
2014-12-7,51.0,38.4,29.0,-99.9,0.0,200.0,0,0,100,0.00,40.00,0,0,0,0.02
2014-12-8,49.0,42.5,36.0,-99.9,0.0,200.0,0,0,100,0.00,40.00,0,0,0,0.00
2014-12-9,54.0,47.7,44.0,-99.9,0.0,200.0,0,0,100,0.00,40.00,0,0,0,0.67
2014-12-10,52.0,48.6,46.0,-99.9,0.0,200.0,0,0,100,0.00,40.00,0,0,0,0.44
2014-12-11,51.0,46.0,39.0,-99.9,0.0,200.0,0,0,100,0.00,40.00,0,0,0,0.21
2014-12-12,48.0,43.6,38.0,-99.9,0.0,200.0,0,0,100,0.00,40.00,0,0,0,0.13
2014-12-13,49.0,39.7,33.0,-99.9,0.0,200.0,0,0,100,0.00,40.00,0,0,0,0.00
2014-12-14,52.0,37.7,23.0,-99.9,0.0,200.0,0,0,100,0.00,40.00,0,0,0,0.00
2014-12-15,50.0,44.2,40.0,-99.9,0.0,200.0,0,0,100,0.00,40.00,0,0,0,0.00
2014-12-16,48.0,41.7,26.0,-99.9,0.0,200.0,0,0,100,0.00,40.00,0,0,0,0.00
2014-12-17,44.0,37.9,27.0,-99.9,0.0,200.0,0,0,100,0.00,40.00,0,0,0,0.05
2014-12-18,43.0,39.5,34.0,-99.9,0.0,200.0,0,0,100,0.00,40.00,0,0,0,0.14
2014-12-19,47.0,40.9,38.0,-99.9,0.0,200.0,0,0,100,0.00,40.00,0,0,0,0.39
2014-12-20,54.0,39.8,37.0,-99.9,0.0,200.0,0,0,100,0.00,40.00,0,0,0,1.83
2014-12-21,55.0,47.1,43.0,-99.9,0.0,200.0,0,0,100,0.00,40.00,0,0,0,1.13
2014-12-22,52.0,40.0,33.0,-99.9,0.0,200.0,0,0,100,0.00,40.00,0,0,0,0.31
2014-12-23,43.0,38.2,33.0,-99.9,0.0,200.0,0,0,100,0.00,40.00,0,0,0,0.41
2014-12-24,42.0,35.1,30.0,-99.9,0.0,200.0,0,0,100,0.00,40.00,0,0,0,0.71
2014-12-25,43.0,34.6,29.0,-99.9,0.0,200.0,0,0,100,0.00,40.00,0,0,0,0.01
2014-12-26,40.0,33.8,30.0,-99.9,0.0,200.0,0,0,100,0.00,40.00,0,0,0,0.00
2014-12-27,38.0,34.5,31.0,-99.9,0.0,200.0,0,0,100,0.00,40.00,0,0,0,0.76
2014-12-28,39.0,36.1,30.0,-99.9,0.0,200.0,0,0,100,0.00,40.00,0,0,0,0.07
2014-12-29,35.0,29.7,25.0,-99.9,0.0,200.0,0,0,100,0.00,40.00,0,0,0,0.04
2014-12-30,32.0,22.2,12.0,-99.9,0.0,200.0,0,0,100,0.00,40.00,0,0,0,0.01
2014-12-31,40.0,22.1,10.0,-99.9,0.0,200.0,0,0,100,0.00,40.00,0,0,0,0.00
2015-1-1,46.0,22.5,11.0,-99.9,0.0,200.0,0,0,100,0.00,40.00,0,0,0,0.00
2015-1-2,35.0,26.4,16.0,-99.9,0.0,200.0,0,0,100,0.00,40.00,0,0,0,0.00